sensor_id;sensor_type;location;lat;lon;timestamp;P1;durP1;ratioP1;P2;durP2;ratioP2
46675;SDS011;32412;51.478;5.694;2023-05-07T00:04:29;21.33;;;15.25;;
46675;SDS011;32412;51.478;5.694;2023-05-07T00:07:10;21.60;;;15.07;;
46675;SDS011;32412;51.478;5.694;2023-05-07T00:09:43;20.60;;;14.00;;
46675;SDS011;32412;51.478;5.694;2023-05-07T00:12:15;21.42;;;14.85;;
46675;SDS011;32412;51.478;5.694;2023-05-07T00:15:01;18.90;;;15.30;;
46675;SDS011;32412;51.478;5.694;2023-05-07T00:17:36;20.08;;;15.15;;
46675;SDS011;32412;51.478;5.694;2023-05-07T00:20:04;21.48;;;15.05;;
46675;SDS011;32412;51.478;5.694;2023-05-07T00:22:33;18.40;;;14.88;;
46675;SDS011;32412;51.478;5.694;2023-05-07T00:24:59;22.27;;;15.45;;
46675;SDS011;32412;51.478;5.694;2023-05-07T00:31:11;19.27;;;15.40;;
46675;SDS011;32412;51.478;5.694;2023-05-07T00:37:16;24.23;;;16.30;;
46675;SDS011;32412;51.478;5.694;2023-05-07T00:39:44;22.60;;;17.35;;
46675;SDS011;32412;51.478;5.694;2023-05-07T00:42:10;19.85;;;16.05;;
46675;SDS011;32412;51.478;5.694;2023-05-07T00:44:36;24.25;;;16.65;;
46675;SDS011;32412;51.478;5.694;2023-05-07T00:47:11;19.60;;;16.05;;
46675;SDS011;32412;51.478;5.694;2023-05-07T00:49:39;23.92;;;16.33;;
46675;SDS011;32412;51.478;5.694;2023-05-07T00:52:14;21.88;;;16.92;;
46675;SDS011;32412;51.478;5.694;2023-05-07T00:54:50;25.23;;;18.35;;
46675;SDS011;32412;51.478;5.694;2023-05-07T01:00:44;21.85;;;17.65;;
46675;SDS011;32412;51.478;5.694;2023-05-07T01:03:15;28.27;;;18.85;;
46675;SDS011;32412;51.478;5.694;2023-05-07T01:06:02;27.80;;;19.38;;
46675;SDS011;32412;51.478;5.694;2023-05-07T01:08:42;24.48;;;18.90;;
46675;SDS011;32412;51.478;5.694;2023-05-07T01:11:23;28.83;;;20.85;;
46675;SDS011;32412;51.478;5.694;2023-05-07T01:13:52;32.63;;;21.58;;
46675;SDS011;32412;51.478;5.694;2023-05-07T01:16:32;29.35;;;21.65;;
46675;SDS011;32412;51.478;5.694;2023-05-07T01:19:12;29.35;;;21.25;;
46675;SDS011;32412;51.478;5.694;2023-05-07T01:21:47;29.65;;;21.92;;
46675;SDS011;32412;51.478;5.694;2023-05-07T01:24:36;29.67;;;21.92;;
46675;SDS011;32412;51.478;5.694;2023-05-07T01:27:11;28.00;;;21.45;;
46675;SDS011;32412;51.478;5.694;2023-05-07T01:29:52;32.85;;;21.25;;
46675;SDS011;32412;51.478;5.694;2023-05-07T01:32:57;29.90;;;20.98;;
46675;SDS011;32412;51.478;5.694;2023-05-07T01:35:55;30.65;;;21.45;;
46675;SDS011;32412;51.478;5.694;2023-05-07T01:38:31;31.65;;;22.92;;
46675;SDS011;32412;51.478;5.694;2023-05-07T01:41:03;29.60;;;21.90;;
46675;SDS011;32412;51.478;5.694;2023-05-07T01:43:45;29.92;;;21.67;;
46675;SDS011;32412;51.478;5.694;2023-05-07T01:46:31;29.15;;;21.67;;
46675;SDS011;32412;51.478;5.694;2023-05-07T01:52:25;32.33;;;23.50;;
46675;SDS011;32412;51.478;5.694;2023-05-07T01:54:58;33.80;;;23.33;;
46675;SDS011;32412;51.478;5.694;2023-05-07T01:57:29;31.80;;;23.85;;
46675;SDS011;32412;51.478;5.694;2023-05-07T02:00:00;35.30;;;24.48;;
46675;SDS011;32412;51.478;5.694;2023-05-07T02:02:34;35.05;;;24.20;;
46675;SDS011;32412;51.478;5.694;2023-05-07T02:05:05;34.85;;;25.15;;
46675;SDS011;32412;51.478;5.694;2023-05-07T02:07:36;34.92;;;24.63;;
46675;SDS011;32412;51.478;5.694;2023-05-07T02:10:07;35.47;;;25.98;;
46675;SDS011;32412;51.478;5.694;2023-05-07T02:12:34;34.25;;;25.38;;
46675;SDS011;32412;51.478;5.694;2023-05-07T02:15:08;33.22;;;25.20;;
46675;SDS011;32412;51.478;5.694;2023-05-07T02:18:04;32.72;;;25.20;;
46675;SDS011;32412;51.478;5.694;2023-05-07T02:20:34;34.70;;;26.13;;
46675;SDS011;32412;51.478;5.694;2023-05-07T02:23:10;33.97;;;25.83;;
46675;SDS011;32412;51.478;5.694;2023-05-07T02:25:47;35.97;;;25.90;;
46675;SDS011;32412;51.478;5.694;2023-05-07T02:28:13;36.03;;;26.45;;
46675;SDS011;32412;51.478;5.694;2023-05-07T02:30:45;35.45;;;26.95;;
46675;SDS011;32412;51.478;5.694;2023-05-07T02:33:20;34.67;;;27.08;;
46675;SDS011;32412;51.478;5.694;2023-05-07T02:35:52;35.45;;;26.33;;
46675;SDS011;32412;51.478;5.694;2023-05-07T02:38:20;39.67;;;27.48;;
46675;SDS011;32412;51.478;5.694;2023-05-07T02:40:46;40.30;;;29.33;;
46675;SDS011;32412;51.478;5.694;2023-05-07T02:43:12;40.10;;;27.20;;
46675;SDS011;32412;51.478;5.694;2023-05-07T02:45:40;35.13;;;27.17;;
46675;SDS011;32412;51.478;5.694;2023-05-07T02:48:33;37.60;;;27.65;;
46675;SDS011;32412;51.478;5.694;2023-05-07T02:51:08;37.28;;;27.35;;
46675;SDS011;32412;51.478;5.694;2023-05-07T02:53:42;38.63;;;28.23;;
46675;SDS011;32412;51.478;5.694;2023-05-07T02:56:20;41.45;;;28.40;;
46675;SDS011;32412;51.478;5.694;2023-05-07T02:58:50;41.20;;;28.90;;
46675;SDS011;32412;51.478;5.694;2023-05-07T03:01:16;39.38;;;28.95;;
46675;SDS011;32412;51.478;5.694;2023-05-07T03:03:45;38.05;;;28.27;;
46675;SDS011;32412;51.478;5.694;2023-05-07T03:06:14;43.17;;;30.15;;
46675;SDS011;32412;51.478;5.694;2023-05-07T03:08:43;41.40;;;29.88;;
46675;SDS011;32412;51.478;5.694;2023-05-07T03:11:12;38.35;;;28.77;;
46675;SDS011;32412;51.478;5.694;2023-05-07T03:13:43;40.70;;;28.65;;
46675;SDS011;32412;51.478;5.694;2023-05-07T03:16:14;42.38;;;30.77;;
46675;SDS011;32412;51.478;5.694;2023-05-07T03:18:52;42.33;;;29.50;;
46675;SDS011;32412;51.478;5.694;2023-05-07T03:21:20;39.53;;;29.58;;
46675;SDS011;32412;51.478;5.694;2023-05-07T03:23:46;40.47;;;29.42;;
46675;SDS011;32412;51.478;5.694;2023-05-07T03:26:12;43.10;;;30.92;;
46675;SDS011;32412;51.478;5.694;2023-05-07T03:28:38;41.50;;;30.90;;
46675;SDS011;32412;51.478;5.694;2023-05-07T03:31:13;39.90;;;30.63;;
46675;SDS011;32412;51.478;5.694;2023-05-07T03:33:49;44.95;;;30.98;;
46675;SDS011;32412;51.478;5.694;2023-05-07T03:36:27;42.00;;;30.80;;
46675;SDS011;32412;51.478;5.694;2023-05-07T03:39:00;41.17;;;31.52;;
46675;SDS011;32412;51.478;5.694;2023-05-07T03:41:47;41.15;;;30.67;;
46675;SDS011;32412;51.478;5.694;2023-05-07T03:44:23;47.28;;;31.48;;
46675;SDS011;32412;51.478;5.694;2023-05-07T03:46:51;44.75;;;31.75;;
46675;SDS011;32412;51.478;5.694;2023-05-07T03:49:17;46.45;;;33.00;;
46675;SDS011;32412;51.478;5.694;2023-05-07T03:51:43;50.42;;;32.67;;
46675;SDS011;32412;51.478;5.694;2023-05-07T03:54:14;43.58;;;32.97;;
46675;SDS011;32412;51.478;5.694;2023-05-07T03:56:43;53.22;;;33.72;;
46675;SDS011;32412;51.478;5.694;2023-05-07T03:59:24;47.85;;;32.85;;
46675;SDS011;32412;51.478;5.694;2023-05-07T04:01:50;47.53;;;32.50;;
46675;SDS011;32412;51.478;5.694;2023-05-07T04:04:21;46.65;;;32.47;;
46675;SDS011;32412;51.478;5.694;2023-05-07T04:06:48;46.17;;;33.60;;
46675;SDS011;32412;51.478;5.694;2023-05-07T04:09:25;43.92;;;32.63;;
46675;SDS011;32412;51.478;5.694;2023-05-07T04:11:55;45.28;;;32.65;;
46675;SDS011;32412;51.478;5.694;2023-05-07T04:14:28;44.85;;;32.90;;
46675;SDS011;32412;51.478;5.694;2023-05-07T04:17:00;46.75;;;34.10;;
46675;SDS011;32412;51.478;5.694;2023-05-07T04:19:26;48.15;;;33.17;;
46675;SDS011;32412;51.478;5.694;2023-05-07T04:21:54;42.25;;;31.52;;
46675;SDS011;32412;51.478;5.694;2023-05-07T04:24:26;42.72;;;31.23;;
46675;SDS011;32412;51.478;5.694;2023-05-07T04:26:58;41.67;;;31.20;;
46675;SDS011;32412;51.478;5.694;2023-05-07T04:29:26;40.65;;;31.30;;
46675;SDS011;32412;51.478;5.694;2023-05-07T04:32:09;44.88;;;32.35;;
46675;SDS011;32412;51.478;5.694;2023-05-07T04:34:38;41.35;;;30.45;;
46675;SDS011;32412;51.478;5.694;2023-05-07T04:37:06;44.05;;;30.65;;
46675;SDS011;32412;51.478;5.694;2023-05-07T04:39:36;42.95;;;29.88;;
46675;SDS011;32412;51.478;5.694;2023-05-07T04:42:05;46.50;;;31.33;;
46675;SDS011;32412;51.478;5.694;2023-05-07T04:44:36;39.85;;;28.75;;
46675;SDS011;32412;51.478;5.694;2023-05-07T04:47:11;38.65;;;29.00;;
46675;SDS011;32412;51.478;5.694;2023-05-07T04:49:52;40.67;;;29.42;;
46675;SDS011;32412;51.478;5.694;2023-05-07T04:52:24;38.22;;;29.85;;
46675;SDS011;32412;51.478;5.694;2023-05-07T04:55:05;38.67;;;27.27;;
46675;SDS011;32412;51.478;5.694;2023-05-07T04:57:32;35.83;;;27.35;;
46675;SDS011;32412;51.478;5.694;2023-05-07T05:00:03;38.75;;;27.50;;
46675;SDS011;32412;51.478;5.694;2023-05-07T05:02:40;37.53;;;27.67;;
46675;SDS011;32412;51.478;5.694;2023-05-07T05:05:06;34.17;;;27.17;;
46675;SDS011;32412;51.478;5.694;2023-05-07T05:07:32;32.45;;;26.52;;
46675;SDS011;32412;51.478;5.694;2023-05-07T05:09:59;37.28;;;27.25;;
46675;SDS011;32412;51.478;5.694;2023-05-07T05:12:35;32.65;;;25.40;;
46675;SDS011;32412;51.478;5.694;2023-05-07T05:15:04;35.63;;;26.00;;
46675;SDS011;32412;51.478;5.694;2023-05-07T05:17:30;31.85;;;24.08;;
46675;SDS011;32412;51.478;5.694;2023-05-07T05:19:56;32.22;;;24.27;;
46675;SDS011;32412;51.478;5.694;2023-05-07T05:22:22;29.63;;;24.38;;
46675;SDS011;32412;51.478;5.694;2023-05-07T05:24:59;31.30;;;24.67;;
46675;SDS011;32412;51.478;5.694;2023-05-07T05:27:26;31.10;;;23.75;;
46675;SDS011;32412;51.478;5.694;2023-05-07T05:29:55;31.45;;;23.27;;
46675;SDS011;32412;51.478;5.694;2023-05-07T05:32:23;32.92;;;23.90;;
46675;SDS011;32412;51.478;5.694;2023-05-07T05:34:51;29.95;;;23.17;;
46675;SDS011;32412;51.478;5.694;2023-05-07T05:37:24;32.05;;;23.48;;
46675;SDS011;32412;51.478;5.694;2023-05-07T05:39:50;29.05;;;23.27;;
46675;SDS011;32412;51.478;5.694;2023-05-07T05:42:25;31.60;;;24.85;;
46675;SDS011;32412;51.478;5.694;2023-05-07T05:44:53;28.13;;;23.73;;
46675;SDS011;32412;51.478;5.694;2023-05-07T05:47:19;28.15;;;22.75;;
46675;SDS011;32412;51.478;5.694;2023-05-07T05:49:55;29.75;;;22.83;;
46675;SDS011;32412;51.478;5.694;2023-05-07T05:52:41;28.10;;;21.17;;
46675;SDS011;32412;51.478;5.694;2023-05-07T05:55:10;27.88;;;21.75;;
46675;SDS011;32412;51.478;5.694;2023-05-07T05:57:45;28.00;;;22.25;;
46675;SDS011;32412;51.478;5.694;2023-05-07T06:00:13;25.75;;;20.70;;
46675;SDS011;32412;51.478;5.694;2023-05-07T06:02:39;27.50;;;21.35;;
46675;SDS011;32412;51.478;5.694;2023-05-07T06:05:05;25.27;;;20.38;;
46675;SDS011;32412;51.478;5.694;2023-05-07T06:07:31;26.73;;;20.77;;
46675;SDS011;32412;51.478;5.694;2023-05-07T06:09:57;25.55;;;20.67;;
46675;SDS011;32412;51.478;5.694;2023-05-07T06:12:25;25.23;;;20.63;;
46675;SDS011;32412;51.478;5.694;2023-05-07T06:14:55;22.55;;;20.15;;
46675;SDS011;32412;51.478;5.694;2023-05-07T06:17:29;25.67;;;19.77;;
46675;SDS011;32412;51.478;5.694;2023-05-07T06:20:02;22.67;;;18.70;;
46675;SDS011;32412;51.478;5.694;2023-05-07T06:22:31;23.20;;;19.17;;
46675;SDS011;32412;51.478;5.694;2023-05-07T06:24:57;21.05;;;18.33;;
46675;SDS011;32412;51.478;5.694;2023-05-07T06:27:39;22.55;;;18.92;;
46675;SDS011;32412;51.478;5.694;2023-05-07T06:30:13;23.75;;;18.40;;
46675;SDS011;32412;51.478;5.694;2023-05-07T06:32:44;20.60;;;17.50;;
46675;SDS011;32412;51.478;5.694;2023-05-07T06:35:16;20.55;;;16.77;;
46675;SDS011;32412;51.478;5.694;2023-05-07T06:38:08;17.33;;;15.47;;
46675;SDS011;32412;51.478;5.694;2023-05-07T06:40:50;17.73;;;15.80;;
46675;SDS011;32412;51.478;5.694;2023-05-07T06:43:23;19.60;;;16.38;;
46675;SDS011;32412;51.478;5.694;2023-05-07T06:46:00;18.80;;;14.27;;
46675;SDS011;32412;51.478;5.694;2023-05-07T06:48:26;19.40;;;15.30;;
46675;SDS011;32412;51.478;5.694;2023-05-07T06:50:55;19.15;;;15.25;;
46675;SDS011;32412;51.478;5.694;2023-05-07T06:53:31;16.80;;;15.05;;
46675;SDS011;32412;51.478;5.694;2023-05-07T06:56:01;19.70;;;15.60;;
46675;SDS011;32412;51.478;5.694;2023-05-07T06:58:27;18.25;;;15.45;;
46675;SDS011;32412;51.478;5.694;2023-05-07T07:00:53;21.13;;;15.80;;
46675;SDS011;32412;51.478;5.694;2023-05-07T07:03:21;20.13;;;16.13;;
46675;SDS011;32412;51.478;5.694;2023-05-07T07:05:47;19.05;;;15.77;;
46675;SDS011;32412;51.478;5.694;2023-05-07T07:08:16;17.73;;;15.88;;
46675;SDS011;32412;51.478;5.694;2023-05-07T07:10:42;16.85;;;15.10;;
46675;SDS011;32412;51.478;5.694;2023-05-07T07:13:08;21.15;;;15.77;;
46675;SDS011;32412;51.478;5.694;2023-05-07T07:15:37;16.30;;;14.43;;
46675;SDS011;32412;51.478;5.694;2023-05-07T07:18:05;16.90;;;14.23;;
46675;SDS011;32412;51.478;5.694;2023-05-07T07:20:31;17.55;;;14.57;;
46675;SDS011;32412;51.478;5.694;2023-05-07T07:22:57;16.92;;;14.50;;
46675;SDS011;32412;51.478;5.694;2023-05-07T07:25:23;15.60;;;13.90;;
46675;SDS011;32412;51.478;5.694;2023-05-07T07:27:49;14.65;;;13.10;;
46675;SDS011;32412;51.478;5.694;2023-05-07T07:30:15;14.55;;;13.02;;
46675;SDS011;32412;51.478;5.694;2023-05-07T07:32:40;14.32;;;12.65;;
46675;SDS011;32412;51.478;5.694;2023-05-07T07:35:06;12.35;;;11.13;;
46675;SDS011;32412;51.478;5.694;2023-05-07T07:37:32;12.90;;;11.52;;
46675;SDS011;32412;51.478;5.694;2023-05-07T07:39:58;14.20;;;12.55;;
46675;SDS011;32412;51.478;5.694;2023-05-07T07:42:23;14.57;;;12.90;;
46675;SDS011;32412;51.478;5.694;2023-05-07T07:44:49;15.73;;;11.63;;
46675;SDS011;32412;51.478;5.694;2023-05-07T07:47:15;14.88;;;12.63;;
46675;SDS011;32412;51.478;5.694;2023-05-07T07:49:40;17.23;;;12.77;;
46675;SDS011;32412;51.478;5.694;2023-05-07T07:52:06;16.13;;;12.50;;
46675;SDS011;32412;51.478;5.694;2023-05-07T07:54:32;15.38;;;12.18;;
46675;SDS011;32412;51.478;5.694;2023-05-07T07:56:57;15.93;;;12.88;;
46675;SDS011;32412;51.478;5.694;2023-05-07T07:59:23;14.35;;;12.93;;
46675;SDS011;32412;51.478;5.694;2023-05-07T08:01:49;13.30;;;11.23;;
46675;SDS011;32412;51.478;5.694;2023-05-07T08:04:16;15.15;;;12.57;;
46675;SDS011;32412;51.478;5.694;2023-05-07T08:06:42;13.13;;;11.20;;
46675;SDS011;32412;51.478;5.694;2023-05-07T08:09:07;13.18;;;11.77;;
46675;SDS011;32412;51.478;5.694;2023-05-07T08:11:33;13.18;;;11.40;;
46675;SDS011;32412;51.478;5.694;2023-05-07T08:13:59;15.57;;;12.32;;
46675;SDS011;32412;51.478;5.694;2023-05-07T08:16:25;14.52;;;11.73;;
46675;SDS011;32412;51.478;5.694;2023-05-07T08:18:51;13.45;;;11.82;;
46675;SDS011;32412;51.478;5.694;2023-05-07T08:21:16;13.45;;;11.68;;
46675;SDS011;32412;51.478;5.694;2023-05-07T08:23:42;15.18;;;12.10;;
46675;SDS011;32412;51.478;5.694;2023-05-07T08:26:08;14.68;;;12.38;;
46675;SDS011;32412;51.478;5.694;2023-05-07T08:28:34;13.02;;;11.63;;
46675;SDS011;32412;51.478;5.694;2023-05-07T08:31:00;15.18;;;12.80;;
46675;SDS011;32412;51.478;5.694;2023-05-07T08:33:26;14.43;;;12.30;;
46675;SDS011;32412;51.478;5.694;2023-05-07T08:35:51;16.45;;;13.02;;
46675;SDS011;32412;51.478;5.694;2023-05-07T08:38:17;14.63;;;12.93;;
46675;SDS011;32412;51.478;5.694;2023-05-07T08:40:43;14.43;;;12.93;;
46675;SDS011;32412;51.478;5.694;2023-05-07T08:43:10;18.23;;;13.07;;
46675;SDS011;32412;51.478;5.694;2023-05-07T08:45:38;15.98;;;13.45;;
46675;SDS011;32412;51.478;5.694;2023-05-07T08:48:07;15.18;;;13.32;;
46675;SDS011;32412;51.478;5.694;2023-05-07T08:50:35;15.82;;;14.02;;
46675;SDS011;32412;51.478;5.694;2023-05-07T08:53:02;14.05;;;12.55;;
46675;SDS011;32412;51.478;5.694;2023-05-07T08:55:29;15.32;;;13.73;;
46675;SDS011;32412;51.478;5.694;2023-05-07T08:57:55;17.40;;;13.82;;
46675;SDS011;32412;51.478;5.694;2023-05-07T09:00:21;17.17;;;12.48;;
46675;SDS011;32412;51.478;5.694;2023-05-07T09:02:46;12.68;;;11.38;;
46675;SDS011;32412;51.478;5.694;2023-05-07T09:05:12;13.75;;;12.32;;
46675;SDS011;32412;51.478;5.694;2023-05-07T09:07:38;12.70;;;10.73;;
46675;SDS011;32412;51.478;5.694;2023-05-07T09:10:04;12.93;;;10.73;;
46675;SDS011;32412;51.478;5.694;2023-05-07T09:12:31;12.18;;;10.85;;
46675;SDS011;32412;51.478;5.694;2023-05-07T09:14:57;13.10;;;11.20;;
46675;SDS011;32412;51.478;5.694;2023-05-07T09:17:23;13.80;;;10.55;;
46675;SDS011;32412;51.478;5.694;2023-05-07T09:19:49;13.93;;;11.90;;
46675;SDS011;32412;51.478;5.694;2023-05-07T09:22:15;13.20;;;11.80;;
46675;SDS011;32412;51.478;5.694;2023-05-07T09:24:41;14.93;;;11.60;;
46675;SDS011;32412;51.478;5.694;2023-05-07T09:27:15;16.10;;;10.75;;
46675;SDS011;32412;51.478;5.694;2023-05-07T09:29:43;12.32;;;11.13;;
46675;SDS011;32412;51.478;5.694;2023-05-07T09:32:09;12.52;;;11.25;;
46675;SDS011;32412;51.478;5.694;2023-05-07T09:34:34;13.05;;;11.65;;
46675;SDS011;32412;51.478;5.694;2023-05-07T09:37:01;13.77;;;12.38;;
46675;SDS011;32412;51.478;5.694;2023-05-07T09:39:41;14.18;;;12.32;;
46675;SDS011;32412;51.478;5.694;2023-05-07T09:42:07;13.32;;;11.77;;
46675;SDS011;32412;51.478;5.694;2023-05-07T09:44:33;12.77;;;11.35;;
46675;SDS011;32412;51.478;5.694;2023-05-07T09:47:00;12.52;;;10.70;;
46675;SDS011;32412;51.478;5.694;2023-05-07T09:49:46;12.27;;;9.43;;
46675;SDS011;32412;51.478;5.694;2023-05-07T09:52:13;11.82;;;10.07;;
46675;SDS011;32412;51.478;5.694;2023-05-07T09:54:39;14.00;;;10.30;;
46675;SDS011;32412;51.478;5.694;2023-05-07T09:57:09;13.32;;;10.93;;
46675;SDS011;32412;51.478;5.694;2023-05-07T09:59:37;16.60;;;13.55;;
46675;SDS011;32412;51.478;5.694;2023-05-07T10:02:04;11.20;;;9.95;;
46675;SDS011;32412;51.478;5.694;2023-05-07T10:04:31;10.98;;;9.77;;
46675;SDS011;32412;51.478;5.694;2023-05-07T10:06:57;13.32;;;10.82;;
46675;SDS011;32412;51.478;5.694;2023-05-07T10:09:24;10.95;;;9.70;;
46675;SDS011;32412;51.478;5.694;2023-05-07T10:11:51;11.32;;;9.82;;
46675;SDS011;32412;51.478;5.694;2023-05-07T10:14:21;12.63;;;9.52;;
46675;SDS011;32412;51.478;5.694;2023-05-07T10:16:47;13.65;;;10.20;;
46675;SDS011;32412;51.478;5.694;2023-05-07T10:19:13;13.07;;;10.13;;
46675;SDS011;32412;51.478;5.694;2023-05-07T10:21:51;9.50;;;8.18;;
46675;SDS011;32412;51.478;5.694;2023-05-07T10:24:22;9.30;;;8.27;;
46675;SDS011;32412;51.478;5.694;2023-05-07T10:26:52;8.85;;;7.43;;
46675;SDS011;32412;51.478;5.694;2023-05-07T10:32:23;7.95;;;6.60;;
46675;SDS011;32412;51.478;5.694;2023-05-07T10:34:53;8.03;;;6.63;;
46675;SDS011;32412;51.478;5.694;2023-05-07T10:37:24;11.85;;;6.60;;
46675;SDS011;32412;51.478;5.694;2023-05-07T10:39:51;8.70;;;7.53;;
46675;SDS011;32412;51.478;5.694;2023-05-07T10:42:17;7.22;;;6.45;;
46675;SDS011;32412;51.478;5.694;2023-05-07T10:44:42;7.28;;;6.57;;
46675;SDS011;32412;51.478;5.694;2023-05-07T10:52:14;7.18;;;5.82;;
46675;SDS011;32412;51.478;5.694;2023-05-07T10:54:41;7.68;;;5.28;;
46675;SDS011;32412;51.478;5.694;2023-05-07T11:00:02;5.68;;;5.03;;
46675;SDS011;32412;51.478;5.694;2023-05-07T11:05:26;6.70;;;5.72;;
46675;SDS011;32412;51.478;5.694;2023-05-07T11:08:03;6.85;;;5.05;;
46675;SDS011;32412;51.478;5.694;2023-05-07T11:10:49;6.20;;;5.47;;
46675;SDS011;32412;51.478;5.694;2023-05-07T11:13:16;8.98;;;5.35;;
46675;SDS011;32412;51.478;5.694;2023-05-07T11:15:43;11.07;;;5.38;;
46675;SDS011;32412;51.478;5.694;2023-05-07T11:18:11;7.65;;;5.45;;
46675;SDS011;32412;51.478;5.694;2023-05-07T11:26:03;8.27;;;5.18;;
46675;SDS011;32412;51.478;5.694;2023-05-07T11:28:31;6.28;;;5.40;;
46675;SDS011;32412;51.478;5.694;2023-05-07T11:31:02;7.78;;;5.68;;
46675;SDS011;32412;51.478;5.694;2023-05-07T11:33:28;7.47;;;5.78;;
46675;SDS011;32412;51.478;5.694;2023-05-07T11:35:58;6.43;;;5.30;;
46675;SDS011;32412;51.478;5.694;2023-05-07T11:38:25;7.85;;;5.50;;
46675;SDS011;32412;51.478;5.694;2023-05-07T11:40:51;10.82;;;6.18;;
46675;SDS011;32412;51.478;5.694;2023-05-07T11:43:25;6.65;;;5.53;;
46675;SDS011;32412;51.478;5.694;2023-05-07T11:45:52;9.93;;;5.22;;
46675;SDS011;32412;51.478;5.694;2023-05-07T11:48:18;9.13;;;4.75;;
46675;SDS011;32412;51.478;5.694;2023-05-07T11:50:53;5.60;;;5.00;;
46675;SDS011;32412;51.478;5.694;2023-05-07T11:53:26;9.60;;;4.75;;
46675;SDS011;32412;51.478;5.694;2023-05-07T11:55:52;8.73;;;4.80;;
46675;SDS011;32412;51.478;5.694;2023-05-07T11:58:20;9.35;;;4.85;;
46675;SDS011;32412;51.478;5.694;2023-05-07T12:00:48;11.32;;;4.90;;
46675;SDS011;32412;51.478;5.694;2023-05-07T12:03:18;6.00;;;4.38;;
46675;SDS011;32412;51.478;5.694;2023-05-07T12:05:47;16.05;;;3.70;;
46675;SDS011;32412;51.478;5.694;2023-05-07T12:08:16;5.30;;;4.03;;
46675;SDS011;32412;51.478;5.694;2023-05-07T12:10:43;5.70;;;4.03;;
46675;SDS011;32412;51.478;5.694;2023-05-07T12:13:19;7.43;;;4.55;;
46675;SDS011;32412;51.478;5.694;2023-05-07T12:15:54;7.28;;;5.63;;
46675;SDS011;32412;51.478;5.694;2023-05-07T12:18:21;5.35;;;4.85;;
46675;SDS011;32412;51.478;5.694;2023-05-07T12:20:47;9.50;;;5.70;;
46675;SDS011;32412;51.478;5.694;2023-05-07T12:23:14;6.10;;;5.10;;
46675;SDS011;32412;51.478;5.694;2023-05-07T12:25:40;4.80;;;4.40;;
46675;SDS011;32412;51.478;5.694;2023-05-07T12:28:15;7.00;;;4.63;;
46675;SDS011;32412;51.478;5.694;2023-05-07T12:30:44;7.60;;;3.95;;
46675;SDS011;32412;51.478;5.694;2023-05-07T12:33:11;5.35;;;3.80;;
46675;SDS011;32412;51.478;5.694;2023-05-07T12:35:41;7.10;;;3.38;;
46675;SDS011;32412;51.478;5.694;2023-05-07T12:38:11;6.57;;;3.80;;
46675;SDS011;32412;51.478;5.694;2023-05-07T12:40:43;6.88;;;3.90;;
46675;SDS011;32412;51.478;5.694;2023-05-07T12:43:17;5.10;;;3.50;;
46675;SDS011;32412;51.478;5.694;2023-05-07T12:45:49;6.55;;;3.45;;
46675;SDS011;32412;51.478;5.694;2023-05-07T12:48:15;6.25;;;4.50;;
46675;SDS011;32412;51.478;5.694;2023-05-07T12:50:41;7.78;;;4.22;;
46675;SDS011;32412;51.478;5.694;2023-05-07T12:53:07;6.93;;;4.20;;
46675;SDS011;32412;51.478;5.694;2023-05-07T12:55:48;6.78;;;4.22;;
46675;SDS011;32412;51.478;5.694;2023-05-07T12:58:19;6.47;;;4.18;;
46675;SDS011;32412;51.478;5.694;2023-05-07T13:00:48;6.32;;;4.63;;
46675;SDS011;32412;51.478;5.694;2023-05-07T13:03:28;6.65;;;4.55;;
46675;SDS011;32412;51.478;5.694;2023-05-07T13:06:05;8.02;;;2.67;;
46675;SDS011;32412;51.478;5.694;2023-05-07T13:08:32;2.95;;;2.15;;
46675;SDS011;32412;51.478;5.694;2023-05-07T13:11:01;3.00;;;2.25;;
46675;SDS011;32412;51.478;5.694;2023-05-07T13:13:34;4.78;;;2.35;;
46675;SDS011;32412;51.478;5.694;2023-05-07T13:16:00;3.45;;;2.28;;
46675;SDS011;32412;51.478;5.694;2023-05-07T13:18:28;6.63;;;2.45;;
46675;SDS011;32412;51.478;5.694;2023-05-07T13:20:58;5.75;;;3.25;;
46675;SDS011;32412;51.478;5.694;2023-05-07T13:23:25;5.03;;;2.95;;
46675;SDS011;32412;51.478;5.694;2023-05-07T13:25:51;5.28;;;3.20;;
46675;SDS011;32412;51.478;5.694;2023-05-07T13:28:20;4.97;;;2.95;;
46675;SDS011;32412;51.478;5.694;2023-05-07T13:30:47;7.07;;;3.42;;
46675;SDS011;32412;51.478;5.694;2023-05-07T13:33:13;5.93;;;3.72;;
46675;SDS011;32412;51.478;5.694;2023-05-07T13:35:39;6.65;;;4.20;;
46675;SDS011;32412;51.478;5.694;2023-05-07T13:38:04;6.68;;;3.95;;
46675;SDS011;32412;51.478;5.694;2023-05-07T13:40:30;5.28;;;4.22;;
46675;SDS011;32412;51.478;5.694;2023-05-07T13:42:59;12.48;;;4.97;;
46675;SDS011;32412;51.478;5.694;2023-05-07T13:45:27;8.98;;;5.68;;
46675;SDS011;32412;51.478;5.694;2023-05-07T13:47:54;7.50;;;5.30;;
46675;SDS011;32412;51.478;5.694;2023-05-07T13:50:21;13.55;;;6.85;;
46675;SDS011;32412;51.478;5.694;2023-05-07T13:52:46;11.05;;;6.72;;
46675;SDS011;32412;51.478;5.694;2023-05-07T13:55:18;10.07;;;6.07;;
46675;SDS011;32412;51.478;5.694;2023-05-07T13:57:44;7.47;;;5.60;;
46675;SDS011;32412;51.478;5.694;2023-05-07T14:00:10;9.27;;;5.85;;
46675;SDS011;32412;51.478;5.694;2023-05-07T14:02:37;8.95;;;6.25;;
46675;SDS011;32412;51.478;5.694;2023-05-07T14:05:02;8.52;;;6.25;;
46675;SDS011;32412;51.478;5.694;2023-05-07T14:07:28;10.23;;;7.07;;
46675;SDS011;32412;51.478;5.694;2023-05-07T14:09:54;13.85;;;7.13;;
46675;SDS011;32412;51.478;5.694;2023-05-07T14:12:20;14.60;;;8.15;;
46675;SDS011;32412;51.478;5.694;2023-05-07T14:14:46;13.43;;;7.65;;
46675;SDS011;32412;51.478;5.694;2023-05-07T14:17:12;15.15;;;6.88;;
46675;SDS011;32412;51.478;5.694;2023-05-07T14:19:38;10.50;;;7.40;;
46675;SDS011;32412;51.478;5.694;2023-05-07T14:22:03;10.07;;;7.18;;
46675;SDS011;32412;51.478;5.694;2023-05-07T14:24:29;9.65;;;6.63;;
46675;SDS011;32412;51.478;5.694;2023-05-07T14:26:55;7.63;;;6.38;;
46675;SDS011;32412;51.478;5.694;2023-05-07T14:29:21;7.22;;;6.32;;
46675;SDS011;32412;51.478;5.694;2023-05-07T14:31:47;8.23;;;6.22;;
46675;SDS011;32412;51.478;5.694;2023-05-07T14:34:13;8.35;;;6.20;;
46675;SDS011;32412;51.478;5.694;2023-05-07T14:36:38;8.70;;;6.28;;
46675;SDS011;32412;51.478;5.694;2023-05-07T14:39:04;8.80;;;6.65;;
46675;SDS011;32412;51.478;5.694;2023-05-07T14:41:30;8.95;;;6.95;;
46675;SDS011;32412;51.478;5.694;2023-05-07T14:43:56;8.25;;;6.30;;
46675;SDS011;32412;51.478;5.694;2023-05-07T14:46:26;9.05;;;6.68;;
46675;SDS011;32412;51.478;5.694;2023-05-07T14:48:52;10.82;;;7.38;;
46675;SDS011;32412;51.478;5.694;2023-05-07T14:51:18;9.52;;;7.60;;
46675;SDS011;32412;51.478;5.694;2023-05-07T14:53:43;9.60;;;7.00;;
46675;SDS011;32412;51.478;5.694;2023-05-07T14:56:09;7.53;;;6.68;;
46675;SDS011;32412;51.478;5.694;2023-05-07T14:58:35;9.52;;;7.50;;
46675;SDS011;32412;51.478;5.694;2023-05-07T15:01:02;12.20;;;6.40;;
46675;SDS011;32412;51.478;5.694;2023-05-07T15:03:28;10.32;;;6.43;;
46675;SDS011;32412;51.478;5.694;2023-05-07T15:05:54;8.50;;;6.22;;
46675;SDS011;32412;51.478;5.694;2023-05-07T15:08:20;11.88;;;8.15;;
46675;SDS011;32412;51.478;5.694;2023-05-07T15:10:46;9.80;;;6.43;;
46675;SDS011;32412;51.478;5.694;2023-05-07T15:13:11;6.72;;;5.00;;
46675;SDS011;32412;51.478;5.694;2023-05-07T15:15:40;8.50;;;5.07;;
46675;SDS011;32412;51.478;5.694;2023-05-07T15:18:06;6.03;;;4.82;;
46675;SDS011;32412;51.478;5.694;2023-05-07T15:20:32;6.20;;;5.05;;